sensor_id;sensor_type;location;lat;lon;timestamp;P1;P2;P0
64229;PMS5003;50547;49.498;0.092;2023-04-25T00:02:24;7;7;
64229;PMS5003;50547;49.498;0.092;2023-04-25T00:04:54;9;9;
64229;PMS5003;50547;49.498;0.092;2023-04-25T00:07:24;8;8;
64229;PMS5003;50547;49.498;0.092;2023-04-25T00:09:53;8;8;
64229;PMS5003;50547;49.498;0.092;2023-04-25T00:12:23;9;9;
64229;PMS5003;50547;49.498;0.092;2023-04-25T00:14:49;10;10;
64229;PMS5003;50547;49.498;0.092;2023-04-25T00:17:18;7;7;
64229;PMS5003;50547;49.498;0.092;2023-04-25T00:19:47;7;7;
64229;PMS5003;50547;49.498;0.092;2023-04-25T00:22:13;4;4;
64229;PMS5003;50547;49.498;0.092;2023-04-25T00:24:42;6;6;
64229;PMS5003;50547;49.498;0.092;2023-04-25T00:27:08;6;6;
64229;PMS5003;50547;49.498;0.092;2023-04-25T00:29:37;6;6;
64229;PMS5003;50547;49.498;0.092;2023-04-25T00:32:06;6;6;
64229;PMS5003;50547;49.498;0.092;2023-04-25T00:34:32;7;7;
64229;PMS5003;50547;49.498;0.092;2023-04-25T00:37:01;7;7;
64229;PMS5003;50547;49.498;0.092;2023-04-25T00:39:31;7;7;
64229;PMS5003;50547;49.498;0.092;2023-04-25T00:41:57;6;6;
64229;PMS5003;50547;49.498;0.092;2023-04-25T00:44:26;7;7;
64229;PMS5003;50547;49.498;0.092;2023-04-25T00:46:56;8;8;
64229;PMS5003;50547;49.498;0.092;2023-04-25T00:49:25;8;8;
64229;PMS5003;50547;49.498;0.092;2023-04-25T00:51:55;7;7;
64229;PMS5003;50547;49.498;0.092;2023-04-25T00:54:25;8;8;
64229;PMS5003;50547;49.498;0.092;2023-04-25T00:56:54;8;8;
64229;PMS5003;50547;49.498;0.092;2023-04-25T00:59:23;9;9;
64229;PMS5003;50547;49.498;0.092;2023-04-25T01:01:54;9;9;
64229;PMS5003;50547;49.498;0.092;2023-04-25T01:04:23;9;9;
64229;PMS5003;50547;49.498;0.092;2023-04-25T01:06:52;10;10;
64229;PMS5003;50547;49.498;0.092;2023-04-25T01:09:22;9;9;
64229;PMS5003;50547;49.498;0.092;2023-04-25T01:11:51;9;9;
64229;PMS5003;50547;49.498;0.092;2023-04-25T01:14:20;8;8;
64229;PMS5003;50547;49.498;0.092;2023-04-25T01:16:49;10;10;
64229;PMS5003;50547;49.498;0.092;2023-04-25T01:19:18;10;10;
64229;PMS5003;50547;49.498;0.092;2023-04-25T01:21:48;10;10;
64229;PMS5003;50547;49.498;0.092;2023-04-25T01:24:17;10;10;
64229;PMS5003;50547;49.498;0.092;2023-04-25T01:26:47;8;8;
64229;PMS5003;50547;49.498;0.092;2023-04-25T01:29:18;10;10;
64229;PMS5003;50547;49.498;0.092;2023-04-25T01:31:48;10;10;
64229;PMS5003;50547;49.498;0.092;2023-04-25T01:34:18;10;10;
64229;PMS5003;50547;49.498;0.092;2023-04-25T01:36:48;10;10;
64229;PMS5003;50547;49.498;0.092;2023-04-25T01:39:18;10;10;
64229;PMS5003;50547;49.498;0.092;2023-04-25T01:41:48;10;10;
64229;PMS5003;50547;49.498;0.092;2023-04-25T01:44:17;10;10;
64229;PMS5003;50547;49.498;0.092;2023-04-25T01:46:46;10;10;
64229;PMS5003;50547;49.498;0.092;2023-04-25T01:49:16;10;10;
64229;PMS5003;50547;49.498;0.092;2023-04-25T01:51:45;10;10;
64229;PMS5003;50547;49.498;0.092;2023-04-25T01:54:14;10;10;
64229;PMS5003;50547;49.498;0.092;2023-04-25T01:56:43;9;9;
64229;PMS5003;50547;49.498;0.092;2023-04-25T01:59:18;8;8;
64229;PMS5003;50547;49.498;0.092;2023-04-25T02:01:47;8;8;
64229;PMS5003;50547;49.498;0.092;2023-04-25T02:04:16;8;8;
64229;PMS5003;50547;49.498;0.092;2023-04-25T02:06:46;9;9;
64229;PMS5003;50547;49.498;0.092;2023-04-25T02:09:15;8;8;
64229;PMS5003;50547;49.498;0.092;2023-04-25T02:11:44;8;8;
64229;PMS5003;50547;49.498;0.092;2023-04-25T02:14:13;8;8;
64229;PMS5003;50547;49.498;0.092;2023-04-25T02:16:42;9;9;
64229;PMS5003;50547;49.498;0.092;2023-04-25T02:19:08;8;8;
64229;PMS5003;50547;49.498;0.092;2023-04-25T02:21:37;9;9;
64229;PMS5003;50547;49.498;0.092;2023-04-25T02:24:06;8;8;
64229;PMS5003;50547;49.498;0.092;2023-04-25T02:26:36;9;9;
64229;PMS5003;50547;49.498;0.092;2023-04-25T02:29:05;8;8;
64229;PMS5003;50547;49.498;0.092;2023-04-25T02:31:34;7;7;
64229;PMS5003;50547;49.498;0.092;2023-04-25T02:34:04;8;8;
64229;PMS5003;50547;49.498;0.092;2023-04-25T02:36:33;8;8;
64229;PMS5003;50547;49.498;0.092;2023-04-25T02:39:02;9;9;
64229;PMS5003;50547;49.498;0.092;2023-04-25T02:41:31;8;8;
64229;PMS5003;50547;49.498;0.092;2023-04-25T02:44:01;7;7;
64229;PMS5003;50547;49.498;0.092;2023-04-25T02:46:30;7;7;
64229;PMS5003;50547;49.498;0.092;2023-04-25T02:48:59;8;8;
64229;PMS5003;50547;49.498;0.092;2023-04-25T02:51:28;7;7;
64229;PMS5003;50547;49.498;0.092;2023-04-25T02:53:57;7;7;
64229;PMS5003;50547;49.498;0.092;2023-04-25T02:56:26;8;8;
64229;PMS5003;50547;49.498;0.092;2023-04-25T02:58:55;7;7;
64229;PMS5003;50547;49.498;0.092;2023-04-25T03:01:25;7;7;
64229;PMS5003;50547;49.498;0.092;2023-04-25T03:03:54;7;7;
64229;PMS5003;50547;49.498;0.092;2023-04-25T03:06:23;7;7;
64229;PMS5003;50547;49.498;0.092;2023-04-25T03:08:52;7;7;
64229;PMS5003;50547;49.498;0.092;2023-04-25T03:11:21;6;6;
64229;PMS5003;50547;49.498;0.092;2023-04-25T03:13:50;7;7;
64229;PMS5003;50547;49.498;0.092;2023-04-25T03:16:19;7;7;
64229;PMS5003;50547;49.498;0.092;2023-04-25T03:18:48;7;7;
64229;PMS5003;50547;49.498;0.092;2023-04-25T03:21:18;5;5;
64229;PMS5003;50547;49.498;0.092;2023-04-25T03:23:47;6;6;
64229;PMS5003;50547;49.498;0.092;2023-04-25T03:26:16;6;6;
64229;PMS5003;50547;49.498;0.092;2023-04-25T03:28:45;6;6;
64229;PMS5003;50547;49.498;0.092;2023-04-25T03:31:14;7;7;
64229;PMS5003;50547;49.498;0.092;2023-04-25T03:33:43;7;7;
64229;PMS5003;50547;49.498;0.092;2023-04-25T03:36:12;7;7;
64229;PMS5003;50547;49.498;0.092;2023-04-25T03:38:41;7;7;
64229;PMS5003;50547;49.498;0.092;2023-04-25T03:41:10;7;7;
64229;PMS5003;50547;49.498;0.092;2023-04-25T03:43:40;7;7;
64229;PMS5003;50547;49.498;0.092;2023-04-25T03:46:09;7;7;
64229;PMS5003;50547;49.498;0.092;2023-04-25T03:48:38;6;6;
64229;PMS5003;50547;49.498;0.092;2023-04-25T03:51:07;7;7;
64229;PMS5003;50547;49.498;0.092;2023-04-25T03:53:36;7;7;
64229;PMS5003;50547;49.498;0.092;2023-04-25T03:56:06;7;7;
64229;PMS5003;50547;49.498;0.092;2023-04-25T03:58:35;7;7;
64229;PMS5003;50547;49.498;0.092;2023-04-25T04:01:04;7;7;
64229;PMS5003;50547;49.498;0.092;2023-04-25T04:03:33;7;7;
64229;PMS5003;50547;49.498;0.092;2023-04-25T04:06:03;7;7;
64229;PMS5003;50547;49.498;0.092;2023-04-25T04:08:32;7;7;
64229;PMS5003;50547;49.498;0.092;2023-04-25T04:11:01;7;7;
64229;PMS5003;50547;49.498;0.092;2023-04-25T04:13:31;8;8;
64229;PMS5003;50547;49.498;0.092;2023-04-25T04:16:00;7;7;
64229;PMS5003;50547;49.498;0.092;2023-04-25T04:18:29;8;8;
64229;PMS5003;50547;49.498;0.092;2023-04-25T04:20:58;8;8;
64229;PMS5003;50547;49.498;0.092;2023-04-25T04:23:27;8;8;
64229;PMS5003;50547;49.498;0.092;2023-04-25T04:25:56;7;7;
64229;PMS5003;50547;49.498;0.092;2023-04-25T04:28:25;8;8;
64229;PMS5003;50547;49.498;0.092;2023-04-25T04:30:55;7;7;
64229;PMS5003;50547;49.498;0.092;2023-04-25T04:33:24;7;7;
64229;PMS5003;50547;49.498;0.092;2023-04-25T04:35:53;7;7;
64229;PMS5003;50547;49.498;0.092;2023-04-25T04:38:22;7;7;
64229;PMS5003;50547;49.498;0.092;2023-04-25T04:40:52;7;7;
64229;PMS5003;50547;49.498;0.092;2023-04-25T04:43:21;7;7;
64229;PMS5003;50547;49.498;0.092;2023-04-25T04:45:50;8;8;
64229;PMS5003;50547;49.498;0.092;2023-04-25T04:48:19;8;8;
64229;PMS5003;50547;49.498;0.092;2023-04-25T04:50:48;7;7;
64229;PMS5003;50547;49.498;0.092;2023-04-25T04:53:18;7;7;
64229;PMS5003;50547;49.498;0.092;2023-04-25T04:55:47;7;7;
64229;PMS5003;50547;49.498;0.092;2023-04-25T04:58:16;8;8;
64229;PMS5003;50547;49.498;0.092;2023-04-25T05:00:45;7;7;
64229;PMS5003;50547;49.498;0.092;2023-04-25T05:03:15;8;8;
64229;PMS5003;50547;49.498;0.092;2023-04-25T05:05:44;8;8;
64229;PMS5003;50547;49.498;0.092;2023-04-25T05:08:13;8;8;
64229;PMS5003;50547;49.498;0.092;2023-04-25T05:10:42;8;8;
64229;PMS5003;50547;49.498;0.092;2023-04-25T05:13:11;7;7;
64229;PMS5003;50547;49.498;0.092;2023-04-25T05:15:40;8;8;
64229;PMS5003;50547;49.498;0.092;2023-04-25T05:18:09;8;8;
64229;PMS5003;50547;49.498;0.092;2023-04-25T05:20:38;8;8;
64229;PMS5003;50547;49.498;0.092;2023-04-25T05:23:08;8;8;
64229;PMS5003;50547;49.498;0.092;2023-04-25T05:25:37;8;8;
64229;PMS5003;50547;49.498;0.092;2023-04-25T05:28:06;9;9;
64229;PMS5003;50547;49.498;0.092;2023-04-25T05:30:35;8;8;
64229;PMS5003;50547;49.498;0.092;2023-04-25T05:33:04;10;10;
64229;PMS5003;50547;49.498;0.092;2023-04-25T05:35:34;7;7;
64229;PMS5003;50547;49.498;0.092;2023-04-25T05:38:03;8;8;
64229;PMS5003;50547;49.498;0.092;2023-04-25T05:40:32;8;8;
64229;PMS5003;50547;49.498;0.092;2023-04-25T05:43:01;8;8;
64229;PMS5003;50547;49.498;0.092;2023-04-25T05:45:30;7;7;
64229;PMS5003;50547;49.498;0.092;2023-04-25T05:47:59;7;7;
64229;PMS5003;50547;49.498;0.092;2023-04-25T05:50:28;8;8;
64229;PMS5003;50547;49.498;0.092;2023-04-25T05:52:58;8;8;
64229;PMS5003;50547;49.498;0.092;2023-04-25T05:55:27;7;7;
64229;PMS5003;50547;49.498;0.092;2023-04-25T05:57:56;7;7;
64229;PMS5003;50547;49.498;0.092;2023-04-25T06:00:25;8;8;
64229;PMS5003;50547;49.498;0.092;2023-04-25T06:02:54;7;7;
64229;PMS5003;50547;49.498;0.092;2023-04-25T06:05:23;8;8;
64229;PMS5003;50547;49.498;0.092;2023-04-25T06:07:52;8;8;
64229;PMS5003;50547;49.498;0.092;2023-04-25T06:10:22;8;8;
64229;PMS5003;50547;49.498;0.092;2023-04-25T06:12:51;9;9;
64229;PMS5003;50547;49.498;0.092;2023-04-25T06:15:20;8;8;
64229;PMS5003;50547;49.498;0.092;2023-04-25T06:17:49;10;10;
64229;PMS5003;50547;49.498;0.092;2023-04-25T06:20:18;9;9;
64229;PMS5003;50547;49.498;0.092;2023-04-25T06:22:48;8;8;
64229;PMS5003;50547;49.498;0.092;2023-04-25T06:25:17;8;8;
64229;PMS5003;50547;49.498;0.092;2023-04-25T06:27:46;10;10;
64229;PMS5003;50547;49.498;0.092;2023-04-25T06:30:15;9;9;
64229;PMS5003;50547;49.498;0.092;2023-04-25T06:32:44;7;7;
64229;PMS5003;50547;49.498;0.092;2023-04-25T06:35:13;8;8;
64229;PMS5003;50547;49.498;0.092;2023-04-25T06:37:43;8;8;
64229;PMS5003;50547;49.498;0.092;2023-04-25T06:40:12;8;8;
64229;PMS5003;50547;49.498;0.092;2023-04-25T06:42:41;8;8;
64229;PMS5003;50547;49.498;0.092;2023-04-25T06:45:11;8;8;
64229;PMS5003;50547;49.498;0.092;2023-04-25T06:47:40;8;8;
64229;PMS5003;50547;49.498;0.092;2023-04-25T06:50:09;8;8;
64229;PMS5003;50547;49.498;0.092;2023-04-25T06:52:38;8;8;
64229;PMS5003;50547;49.498;0.092;2023-04-25T06:55:08;9;9;
64229;PMS5003;50547;49.498;0.092;2023-04-25T06:57:37;8;8;
64229;PMS5003;50547;49.498;0.092;2023-04-25T07:00:07;8;8;
64229;PMS5003;50547;49.498;0.092;2023-04-25T07:02:37;8;8;
64229;PMS5003;50547;49.498;0.092;2023-04-25T07:05:06;8;8;
64229;PMS5003;50547;49.498;0.092;2023-04-25T07:07:36;7;7;
64229;PMS5003;50547;49.498;0.092;2023-04-25T07:10:05;7;7;
64229;PMS5003;50547;49.498;0.092;2023-04-25T07:12:34;8;8;
64229;PMS5003;50547;49.498;0.092;2023-04-25T07:15:04;8;8;
64229;PMS5003;50547;49.498;0.092;2023-04-25T07:17:34;7;7;
64229;PMS5003;50547;49.498;0.092;2023-04-25T07:20:04;8;8;
64229;PMS5003;50547;49.498;0.092;2023-04-25T07:22:34;7;7;
64229;PMS5003;50547;49.498;0.092;2023-04-25T07:25:00;8;8;
64229;PMS5003;50547;49.498;0.092;2023-04-25T07:27:27;8;8;
64229;PMS5003;50547;49.498;0.092;2023-04-25T07:29:57;9;9;
64229;PMS5003;50547;49.498;0.092;2023-04-25T07:32:55;7;7;
64229;PMS5003;50547;49.498;0.092;2023-04-25T07:35:24;7;7;
64229;PMS5003;50547;49.498;0.092;2023-04-25T07:37:53;7;7;
64229;PMS5003;50547;49.498;0.092;2023-04-25T07:40:23;7;7;
64229;PMS5003;50547;49.498;0.092;2023-04-25T07:42:52;8;8;
64229;PMS5003;50547;49.498;0.092;2023-04-25T07:45:21;7;7;
64229;PMS5003;50547;49.498;0.092;2023-04-25T07:48:24;10;10;
64229;PMS5003;50547;49.498;0.092;2023-04-25T07:50:53;11;11;
64229;PMS5003;50547;49.498;0.092;2023-04-25T07:53:23;9;9;
64229;PMS5003;50547;49.498;0.092;2023-04-25T07:55:52;8;8;
64229;PMS5003;50547;49.498;0.092;2023-04-25T07:58:21;7;7;
64229;PMS5003;50547;49.498;0.092;2023-04-25T08:00:50;7;7;
64229;PMS5003;50547;49.498;0.092;2023-04-25T08:03:20;7;7;
64229;PMS5003;50547;49.498;0.092;2023-04-25T08:05:49;7;7;
64229;PMS5003;50547;49.498;0.092;2023-04-25T08:08:18;7;7;
64229;PMS5003;50547;49.498;0.092;2023-04-25T08:10:47;6;6;
64229;PMS5003;50547;49.498;0.092;2023-04-25T08:13:16;6;6;
64229;PMS5003;50547;49.498;0.092;2023-04-25T08:15:45;7;7;
64229;PMS5003;50547;49.498;0.092;2023-04-25T08:18:14;7;7;
64229;PMS5003;50547;49.498;0.092;2023-04-25T08:20:43;7;7;
64229;PMS5003;50547;49.498;0.092;2023-04-25T08:23:13;7;7;
64229;PMS5003;50547;49.498;0.092;2023-04-25T08:25:42;6;6;
64229;PMS5003;50547;49.498;0.092;2023-04-25T08:28:11;7;7;
64229;PMS5003;50547;49.498;0.092;2023-04-25T08:30:40;7;7;
64229;PMS5003;50547;49.498;0.092;2023-04-25T08:33:09;6;6;
64229;PMS5003;50547;49.498;0.092;2023-04-25T08:35:39;6;6;
64229;PMS5003;50547;49.498;0.092;2023-04-25T08:38:08;6;6;
64229;PMS5003;50547;49.498;0.092;2023-04-25T08:40:38;6;6;
64229;PMS5003;50547;49.498;0.092;2023-04-25T08:43:05;7;7;
64229;PMS5003;50547;49.498;0.092;2023-04-25T08:45:32;6;6;
64229;PMS5003;50547;49.498;0.092;2023-04-25T08:48:03;7;7;
64229;PMS5003;50547;49.498;0.092;2023-04-25T08:50:33;7;7;
64229;PMS5003;50547;49.498;0.092;2023-04-25T08:53:03;6;6;
64229;PMS5003;50547;49.498;0.092;2023-04-25T08:55:37;6;6;
64229;PMS5003;50547;49.498;0.092;2023-04-25T08:58:10;5;5;
64229;PMS5003;50547;49.498;0.092;2023-04-25T09:00:40;6;6;
64229;PMS5003;50547;49.498;0.092;2023-04-25T09:03:05;6;6;
64229;PMS5003;50547;49.498;0.092;2023-04-25T09:05:36;6;6;
64229;PMS5003;50547;49.498;0.092;2023-04-25T09:08:05;7;7;
64229;PMS5003;50547;49.498;0.092;2023-04-25T09:10:35;7;7;
64229;PMS5003;50547;49.498;0.092;2023-04-25T09:13:05;7;7;
64229;PMS5003;50547;49.498;0.092;2023-04-25T09:15:46;9;9;
64229;PMS5003;50547;49.498;0.092;2023-04-25T09:18:24;6;6;
64229;PMS5003;50547;49.498;0.092;2023-04-25T09:20:54;7;7;
64229;PMS5003;50547;49.498;0.092;2023-04-25T09:23:24;8;8;
64229;PMS5003;50547;49.498;0.092;2023-04-25T09:25:53;6;6;
64229;PMS5003;50547;49.498;0.092;2023-04-25T09:28:23;6;6;
64229;PMS5003;50547;49.498;0.092;2023-04-25T09:30:54;7;7;
64229;PMS5003;50547;49.498;0.092;2023-04-25T09:33:28;5;5;
64229;PMS5003;50547;49.498;0.092;2023-04-25T09:36:02;7;7;
64229;PMS5003;50547;49.498;0.092;2023-04-25T09:38:38;6;6;
64229;PMS5003;50547;49.498;0.092;2023-04-25T09:41:09;5;5;
64229;PMS5003;50547;49.498;0.092;2023-04-25T09:43:39;5;5;
64229;PMS5003;50547;49.498;0.092;2023-04-25T09:46:13;5;5;
64229;PMS5003;50547;49.498;0.092;2023-04-25T09:48:46;5;5;
64229;PMS5003;50547;49.498;0.092;2023-04-25T09:51:17;5;5;
64229;PMS5003;50547;49.498;0.092;2023-04-25T09:53:47;6;6;
64229;PMS5003;50547;49.498;0.092;2023-04-25T09:56:13;5;5;
64229;PMS5003;50547;49.498;0.092;2023-04-25T09:58:42;6;6;
64229;PMS5003;50547;49.498;0.092;2023-04-25T10:01:11;7;7;
64229;PMS5003;50547;49.498;0.092;2023-04-25T10:03:40;7;7;
64229;PMS5003;50547;49.498;0.092;2023-04-25T10:06:12;8;8;
64229;PMS5003;50547;49.498;0.092;2023-04-25T10:08:43;9;9;
64229;PMS5003;50547;49.498;0.092;2023-04-25T10:11:13;7;7;
64229;PMS5003;50547;49.498;0.092;2023-04-25T10:13:43;5;5;
64229;PMS5003;50547;49.498;0.092;2023-04-25T10:16:13;4;4;
64229;PMS5003;50547;49.498;0.092;2023-04-25T10:18:42;5;5;
64229;PMS5003;50547;49.498;0.092;2023-04-25T10:21:11;4;4;
64229;PMS5003;50547;49.498;0.092;2023-04-25T10:23:42;5;5;
64229;PMS5003;50547;49.498;0.092;2023-04-25T10:26:13;5;5;
64229;PMS5003;50547;49.498;0.092;2023-04-25T10:28:55;5;5;
64229;PMS5003;50547;49.498;0.092;2023-04-25T10:31:25;4;4;
64229;PMS5003;50547;49.498;0.092;2023-04-25T10:33:55;5;5;
64229;PMS5003;50547;49.498;0.092;2023-04-25T10:36:24;5;5;
64229;PMS5003;50547;49.498;0.092;2023-04-25T11:42:09;4;4;
64229;PMS5003;50547;49.498;0.092;2023-04-25T11:44:38;4;4;
64229;PMS5003;50547;49.498;0.092;2023-04-25T11:47:08;5;5;
64229;PMS5003;50547;49.498;0.092;2023-04-25T11:49:37;4;4;
64229;PMS5003;50547;49.498;0.092;2023-04-25T11:52:06;4;4;
64229;PMS5003;50547;49.498;0.092;2023-04-25T11:54:36;4;4;
64229;PMS5003;50547;49.498;0.092;2023-04-25T11:57:05;4;4;
64229;PMS5003;50547;49.498;0.092;2023-04-25T11:59:34;4;4;
64229;PMS5003;50547;49.498;0.092;2023-04-25T12:02:03;4;4;
64229;PMS5003;50547;49.498;0.092;2023-04-25T12:04:32;4;4;
64229;PMS5003;50547;49.498;0.092;2023-04-25T12:07:01;4;4;
64229;PMS5003;50547;49.498;0.092;2023-04-25T12:09:31;4;4;
64229;PMS5003;50547;49.498;0.092;2023-04-25T12:12:01;4;4;
64229;PMS5003;50547;49.498;0.092;2023-04-25T12:14:31;4;4;
64229;PMS5003;50547;49.498;0.092;2023-04-25T12:17:02;4;4;
64229;PMS5003;50547;49.498;0.092;2023-04-25T12:19:33;4;4;
64229;PMS5003;50547;49.498;0.092;2023-04-25T12:22:10;4;4;
64229;PMS5003;50547;49.498;0.092;2023-04-25T12:24:48;4;4;
64229;PMS5003;50547;49.498;0.092;2023-04-25T12:27:17;4;4;
64229;PMS5003;50547;49.498;0.092;2023-04-25T12:29:50;4;4;
64229;PMS5003;50547;49.498;0.092;2023-04-25T12:32:20;4;4;
64229;PMS5003;50547;49.498;0.092;2023-04-25T12:34:50;4;4;
64229;PMS5003;50547;49.498;0.092;2023-04-25T12:37:19;4;4;
64229;PMS5003;50547;49.498;0.092;2023-04-25T12:39:48;4;4;
64229;PMS5003;50547;49.498;0.092;2023-04-25T12:42:17;4;4;
64229;PMS5003;50547;49.498;0.092;2023-04-25T12:44:46;4;4;
64229;PMS5003;50547;49.498;0.092;2023-04-25T12:47:15;5;5;
64229;PMS5003;50547;49.498;0.092;2023-04-25T12:49:44;4;4;
64229;PMS5003;50547;49.498;0.092;2023-04-25T12:52:14;5;5;
64229;PMS5003;50547;49.498;0.092;2023-04-25T12:54:43;4;4;
64229;PMS5003;50547;49.498;0.092;2023-04-25T12:57:12;4;4;
64229;PMS5003;50547;49.498;0.092;2023-04-25T12:59:41;4;4;
64229;PMS5003;50547;49.498;0.092;2023-04-25T13:02:10;4;4;
64229;PMS5003;50547;49.498;0.092;2023-04-25T13:04:39;4;4;
64229;PMS5003;50547;49.498;0.092;2023-04-25T13:07:08;5;5;
64229;PMS5003;50547;49.498;0.092;2023-04-25T13:09:37;4;4;
64229;PMS5003;50547;49.498;0.092;2023-04-25T13:12:06;4;4;
64229;PMS5003;50547;49.498;0.092;2023-04-25T13:14:36;5;5;
64229;PMS5003;50547;49.498;0.092;2023-04-25T13:17:05;10;10;
64229;PMS5003;50547;49.498;0.092;2023-04-25T13:19:34;5;5;
64229;PMS5003;50547;49.498;0.092;2023-04-25T13:22:03;5;5;
64229;PMS5003;50547;49.498;0.092;2023-04-25T13:24:32;4;4;
64229;PMS5003;50547;49.498;0.092;2023-04-25T13:27:01;8;8;
64229;PMS5003;50547;49.498;0.092;2023-04-25T13:29:30;9;9;
64229;PMS5003;50547;49.498;0.092;2023-04-25T13:31:59;4;4;
64229;PMS5003;50547;49.498;0.092;2023-04-25T13:34:29;3;3;
64229;PMS5003;50547;49.498;0.092;2023-04-25T13:36:58;5;5;
64229;PMS5003;50547;49.498;0.092;2023-04-25T13:39:27;4;4;
64229;PMS5003;50547;49.498;0.092;2023-04-25T13:41:56;4;4;
64229;PMS5003;50547;49.498;0.092;2023-04-25T13:44:25;3;3;
64229;PMS5003;50547;49.498;0.092;2023-04-25T13:46:55;4;4;
64229;PMS5003;50547;49.498;0.092;2023-04-25T13:49:24;3;3;
64229;PMS5003;50547;49.498;0.092;2023-04-25T13:51:53;4;4;
64229;PMS5003;50547;49.498;0.092;2023-04-25T13:54:22;4;4;
64229;PMS5003;50547;49.498;0.092;2023-04-25T13:56:51;4;4;
64229;PMS5003;50547;49.498;0.092;2023-04-25T13:59:20;4;4;
64229;PMS5003;50547;49.498;0.092;2023-04-25T14:01:49;5;5;
64229;PMS5003;50547;49.498;0.092;2023-04-25T14:04:18;5;5;
64229;PMS5003;50547;49.498;0.092;2023-04-25T14:06:47;4;4;
64229;PMS5003;50547;49.498;0.092;2023-04-25T14:09:17;4;4;
64229;PMS5003;50547;49.498;0.092;2023-04-25T14:11:46;4;4;
64229;PMS5003;50547;49.498;0.092;2023-04-25T14:14:15;4;4;
64229;PMS5003;50547;49.498;0.092;2023-04-25T14:16:44;4;4;
64229;PMS5003;50547;49.498;0.092;2023-04-25T14:19:13;5;5;
64229;PMS5003;50547;49.498;0.092;2023-04-25T14:21:42;5;5;
64229;PMS5003;50547;49.498;0.092;2023-04-25T14:24:12;5;5;
64229;PMS5003;50547;49.498;0.092;2023-04-25T14:26:43;5;5;
64229;PMS5003;50547;49.498;0.092;2023-04-25T14:29:12;4;4;
64229;PMS5003;50547;49.498;0.092;2023-04-25T14:31:41;4;4;
64229;PMS5003;50547;49.498;0.092;2023-04-25T14:34:10;4;4;
64229;PMS5003;50547;49.498;0.092;2023-04-25T14:36:39;4;4;
64229;PMS5003;50547;49.498;0.092;2023-04-25T14:39:09;5;5;
64229;PMS5003;50547;49.498;0.092;2023-04-25T14:41:38;5;5;
64229;PMS5003;50547;49.498;0.092;2023-04-25T14:44:07;5;5;
64229;PMS5003;50547;49.498;0.092;2023-04-25T14:46:36;4;4;
64229;PMS5003;50547;49.498;0.092;2023-04-25T14:49:05;5;5;
64229;PMS5003;50547;49.498;0.092;2023-04-25T14:51:34;5;5;
64229;PMS5003;50547;49.498;0.092;2023-04-25T14:54:03;4;4;
64229;PMS5003;50547;49.498;0.092;2023-04-25T14:56:33;4;4;
64229;PMS5003;50547;49.498;0.092;2023-04-25T14:59:02;4;4;
64229;PMS5003;50547;49.498;0.092;2023-04-25T15:01:31;3;3;
64229;PMS5003;50547;49.498;0.092;2023-04-25T15:04:00;4;4;
64229;PMS5003;50547;49.498;0.092;2023-04-25T15:06:29;7;7;
64229;PMS5003;50547;49.498;0.092;2023-04-25T15:08:58;6;6;
64229;PMS5003;50547;49.498;0.092;2023-04-25T15:11:27;6;6;
64229;PMS5003;50547;49.498;0.092;2023-04-25T15:13:56;6;6;
64229;PMS5003;50547;49.498;0.092;2023-04-25T15:16:26;5;5;
64229;PMS5003;50547;49.498;0.092;2023-04-25T15:18:55;7;7;
64229;PMS5003;50547;49.498;0.092;2023-04-25T15:21:21;6;6;
64229;PMS5003;50547;49.498;0.092;2023-04-25T15:23:50;7;7;
64229;PMS5003;50547;49.498;0.092;2023-04-25T15:26:19;7;7;
64229;PMS5003;50547;49.498;0.092;2023-04-25T15:28:48;5;5;
64229;PMS5003;50547;49.498;0.092;2023-04-25T15:31:17;6;6;
64229;PMS5003;50547;49.498;0.092;2023-04-25T15:33:58;6;6;
64229;PMS5003;50547;49.498;0.092;2023-04-25T15:36:27;5;5;
64229;PMS5003;50547;49.498;0.092;2023-04-25T15:38:57;7;7;
64229;PMS5003;50547;49.498;0.092;2023-04-25T15:41:24;8;8;
64229;PMS5003;50547;49.498;0.092;2023-04-25T15:43:53;7;7;
64229;PMS5003;50547;49.498;0.092;2023-04-25T15:46:47;6;6;
64229;PMS5003;50547;49.498;0.092;2023-04-25T15:49:14;6;6;
64229;PMS5003;50547;49.498;0.092;2023-04-25T15:51:40;5;5;
64229;PMS5003;50547;49.498;0.092;2023-04-25T15:54:09;6;6;
64229;PMS5003;50547;49.498;0.092;2023-04-25T15:56:49;6;6;
64229;PMS5003;50547;49.498;0.092;2023-04-25T15:59:18;6;6;
64229;PMS5003;50547;49.498;0.092;2023-04-25T16:01:47;6;6;
64229;PMS5003;50547;49.498;0.092;2023-04-25T16:04:16;7;7;
64229;PMS5003;50547;49.498;0.092;2023-04-25T16:06:51;6;6;
64229;PMS5003;50547;49.498;0.092;2023-04-25T16:09:20;6;6;
64229;PMS5003;50547;49.498;0.092;2023-04-25T16:11:49;6;6;
64229;PMS5003;50547;49.498;0.092;2023-04-25T16:14:33;6;6;
64229;PMS5003;50547;49.498;0.092;2023-04-25T16:17:02;6;6;
64229;PMS5003;50547;49.498;0.092;2023-04-25T16:19:31;6;6;
64229;PMS5003;50547;49.498;0.092;2023-04-25T16:22:01;6;6;
64229;PMS5003;50547;49.498;0.092;2023-04-25T16:24:30;6;6;
64229;PMS5003;50547;49.498;0.092;2023-04-25T16:26:59;5;5;
64229;PMS5003;50547;49.498;0.092;2023-04-25T16:29:28;5;5;
64229;PMS5003;50547;49.498;0.092;2023-04-25T16:31:57;7;7;
64229;PMS5003;50547;49.498;0.092;2023-04-25T16:34:27;7;7;
64229;PMS5003;50547;49.498;0.092;2023-04-25T16:36:56;6;6;
64229;PMS5003;50547;49.498;0.092;2023-04-25T16:39:25;6;6;
64229;PMS5003;50547;49.498;0.092;2023-04-25T16:42:17;6;6;
64229;PMS5003;50547;49.498;0.092;2023-04-25T16:44:46;7;7;
64229;PMS5003;50547;49.498;0.092;2023-04-25T16:47:14;6;6;
64229;PMS5003;50547;49.498;0.092;2023-04-25T16:49:43;6;6;
64229;PMS5003;50547;49.498;0.092;2023-04-25T16:52:17;5;5;
64229;PMS5003;50547;49.498;0.092;2023-04-25T16:54:46;6;6;
64229;PMS5003;50547;49.498;0.092;2023-04-25T16:57:15;6;6;
64229;PMS5003;50547;49.498;0.092;2023-04-25T16:59:44;5;5;
64229;PMS5003;50547;49.498;0.092;2023-04-25T17:02:14;5;5;
64229;PMS5003;50547;49.498;0.092;2023-04-25T17:04:54;7;7;
64229;PMS5003;50547;49.498;0.092;2023-04-25T17:07:23;7;7;
64229;PMS5003;50547;49.498;0.092;2023-04-25T17:09:52;7;7;
64229;PMS5003;50547;49.498;0.092;2023-04-25T17:12:21;6;6;
64229;PMS5003;50547;49.498;0.092;2023-04-25T17:14:51;7;7;
64229;PMS5003;50547;49.498;0.092;2023-04-25T17:17:20;7;7;
64229;PMS5003;50547;49.498;0.092;2023-04-25T17:19:49;7;7;
64229;PMS5003;50547;49.498;0.092;2023-04-25T17:22:57;6;6;
64229;PMS5003;50547;49.498;0.092;2023-04-25T17:25:26;5;5;
64229;PMS5003;50547;49.498;0.092;2023-04-25T17:27:55;7;7;
64229;PMS5003;50547;49.498;0.092;2023-04-25T17:30:24;7;7;
64229;PMS5003;50547;49.498;0.092;2023-04-25T17:32:54;7;7;
64229;PMS5003;50547;49.498;0.092;2023-04-25T17:35:23;7;7;
64229;PMS5003;50547;49.498;0.092;2023-04-25T17:37:52;7;7;
64229;PMS5003;50547;49.498;0.092;2023-04-25T17:40:31;14;14;
64229;PMS5003;50547;49.498;0.092;2023-04-25T17:43:00;8;8;
64229;PMS5003;50547;49.498;0.092;2023-04-25T17:45:30;9;9;
64229;PMS5003;50547;49.498;0.092;2023-04-25T17:47:59;8;8;
64229;PMS5003;50547;49.498;0.092;2023-04-25T17:50:28;7;7;
64229;PMS5003;50547;49.498;0.092;2023-04-25T17:52:58;7;7;
64229;PMS5003;50547;49.498;0.092;2023-04-25T17:55:28;8;8;
64229;PMS5003;50547;49.498;0.092;2023-04-25T17:57:57;10;10;
64229;PMS5003;50547;49.498;0.092;2023-04-25T18:00:26;10;10;
64229;PMS5003;50547;49.498;0.092;2023-04-25T18:02:52;10;10;
64229;PMS5003;50547;49.498;0.092;2023-04-25T18:05:18;8;8;
64229;PMS5003;50547;49.498;0.092;2023-04-25T18:07:47;8;8;
64229;PMS5003;50547;49.498;0.092;2023-04-25T18:10:16;6;6;